Wales, AK

11:54 PM AKST on February 12, 2016 (GMT -0900)
Tin City LRRS | | Change Station
CLOSE
Current Station
Airport
Location: Tin City,
Elevation: 272 ft
Nearby Weather Stations

Elev 272 ft 65.56 °N, 167.92 °W | Updated 35 minutes ago

Light Snow
Light Snow Mist
-6 °F
Feels Like -30 °F
N
22
Wind Variable Wind from North

Today
High -- | Low -- °F
--% Chance of Precip.
Yesterday
High -- | Low -- °F
Precip. -- in
Pressure 29.58 in
Visibility 1.8 miles
Clouds Overcast 1000 ft
Windchill -30 °F
Dew Point -9 °F
Humidity 84%
Rainfall 0.00 in
Snow Depth Not available.
10:25 AM 6:27 PM
Waxing Crescent, 28% visible
SPECI PATC 130819Z AUTO 01019KT 1 3/4SM -SN BR OVC010 M21/M23 A2954 RMK AO2 SLP017
Pressure 29.58 in
Visibility 1.8 miles
Clouds Overcast 1000 ft
Windchill -30 °F
Dew Point -9 °F
Humidity 84%
Rainfall 0.00 in
Snow Depth Not available.
10:25 AM 6:27 PM
Waxing Crescent, 28% visible
SPECI PATC 130819Z AUTO 01019KT 1 3/4SM -SN BR OVC010 M21/M23 A2954 RMK AO2 SLP017

10-Day Weather Forecast

Almanac

Astronomy

Feb. 12, 2016 Rise Set
Actual Time
Civil Twilight
Nautical Twilight
Astronomical Twilight
Moon
Length of Visible Light
Length of Day
Tomorrow will be .
, % of the Moon is Illuminated

Today's Extremes

State Highs State Lows

Community

WunderPhotos

Upload Photos

1,892,536 photos uploaded!

WunderBlog® & News

Nearby

Air Quality

  Air Quality AQ Index Pollutant
Not available.

Snow Depth

Station Depth Elevation

Earthquake Activity

City Distance Mag. Time & Date
Minimum magnitude displayed is 2.5.

Coastal Water Temperatures

Place Temperature

Stations

Nearby Weather Stations

Station Location Temp. Windchill Dew Point Humidity Wind Precip. Elev Updated Type
                   

Watches & Warnings

There are currently no watches in effect.